createdAt,value
2019-01-29T00:01:01.542Z,0.50
2019-01-29T00:03:31.382Z,0.40
2019-01-29T00:06:02.702Z,0.50
2019-01-29T00:08:32.527Z,0.50
2019-01-29T00:11:02.351Z,0.30
2019-01-29T00:13:32.255Z,0.10
2019-01-29T00:16:02.133Z,0.10
2019-01-29T00:18:33.062Z,0.00
2019-01-29T00:21:04.253Z,-0.10
2019-01-29T00:23:34.110Z,0.10
2019-01-29T00:26:03.976Z,0.00
2019-01-29T00:28:33.834Z,0.00
2019-01-29T00:31:03.742Z,-0.10
2019-01-29T00:33:33.574Z,0.00
2019-01-29T00:36:03.455Z,0.00
2019-01-29T00:38:33.258Z,0.20
2019-01-29T00:41:03.062Z,0.30
2019-01-29T00:43:32.897Z,0.10
2019-01-29T00:46:02.702Z,0.10
2019-01-29T00:48:32.598Z,0.00
2019-01-29T00:51:02.428Z,0.00
2019-01-29T00:53:32.254Z,-0.10
2019-01-29T00:56:02.116Z,-0.20
2019-01-29T00:58:31.978Z,-0.10
2019-01-29T01:01:01.899Z,0.00
2019-01-29T01:03:31.753Z,0.10
2019-01-29T01:06:01.566Z,0.20
2019-01-29T01:08:31.462Z,0.20
2019-01-29T01:11:01.299Z,0.20
2019-01-29T01:13:31.154Z,0.20
2019-01-29T01:16:01.081Z,0.20
2019-01-29T01:18:30.995Z,0.20
2019-01-29T01:21:01.912Z,0.20
2019-01-29T01:23:31.834Z,0.20
2019-01-29T01:26:01.682Z,0.10
2019-01-29T01:28:31.507Z,-0.10
2019-01-29T01:31:01.389Z,-0.10
2019-01-29T01:33:31.166Z,-0.10
2019-01-29T01:36:00.955Z,-0.30
2019-01-29T01:38:30.798Z,-0.30
2019-01-29T01:41:00.683Z,-0.30
2019-01-29T01:43:30.485Z,-0.30
2019-01-29T01:46:00.286Z,-0.20
2019-01-29T01:48:30.178Z,-0.10
2019-01-29T01:51:00.010Z,-0.10
2019-01-29T01:53:31.416Z,-0.10
2019-01-29T01:56:01.245Z,-0.20
2019-01-29T01:58:36.067Z,-0.20
2019-01-29T02:01:05.995Z,-0.20
2019-01-29T02:03:35.998Z,-0.10
2019-01-29T02:06:10.370Z,-0.10
2019-01-29T02:08:41.458Z,0.00
2019-01-29T02:11:11.266Z,-0.10
2019-01-29T02:13:41.075Z,-0.20
2019-01-29T02:16:12.573Z,-0.30
2019-01-29T02:18:45.264Z,-0.40
2019-01-29T02:21:15.326Z,-0.30
2019-01-29T02:23:48.192Z,-0.20
2019-01-29T02:26:18.022Z,-0.30
2019-01-29T02:28:48.182Z,-0.10
2019-01-29T02:31:20.610Z,-0.10
2019-01-29T02:33:51.999Z,-0.10
2019-01-29T02:36:22.053Z,-0.20
2019-01-29T02:38:51.889Z,-0.20
2019-01-29T02:41:21.833Z,-0.30
2019-01-29T02:43:51.966Z,-0.20
2019-01-29T02:46:21.882Z,-0.20
2019-01-29T02:48:51.731Z,-0.30
2019-01-29T02:51:23.318Z,-0.30
2019-01-29T02:53:53.255Z,-0.40
2019-01-29T02:56:23.048Z,-0.40
2019-01-29T02:58:52.881Z,-0.60
2019-01-29T03:01:22.882Z,-0.70
2019-01-29T03:04:10.491Z,-0.70
2019-01-29T03:06:45.863Z,-0.70
2019-01-29T03:09:17.014Z,-0.70
2019-01-29T03:11:46.859Z,-0.80
2019-01-29T03:14:16.674Z,-0.90
2019-01-29T03:16:46.561Z,-0.80
2019-01-29T03:19:16.374Z,-0.90
2019-01-29T03:21:50.826Z,-0.80
2019-01-29T03:24:20.783Z,-0.60
2019-01-29T03:26:50.575Z,-0.70
2019-01-29T03:29:20.398Z,-0.80
2019-01-29T03:31:50.234Z,-0.90
2019-01-29T03:34:20.830Z,-0.90
2019-01-29T03:36:53.630Z,-0.80
2019-01-29T03:39:37.637Z,-0.90
2019-01-29T03:42:15.249Z,-0.90
2019-01-29T03:44:49.916Z,-0.80
2019-01-29T03:47:34.401Z,-0.80
2019-01-29T03:50:15.132Z,-0.70
2019-01-29T03:52:49.735Z,-0.90
2019-01-29T03:55:26.934Z,-0.90
2019-01-29T03:57:58.728Z,-0.90
2019-01-29T04:00:29.690Z,-0.90
2019-01-29T04:02:59.515Z,-0.70
2019-01-29T04:05:29.326Z,-0.60
2019-01-29T04:07:59.179Z,-0.60
2019-01-29T04:10:30.234Z,-0.50
2019-01-29T04:13:00.075Z,-0.40
2019-01-29T04:15:29.866Z,-0.40
2019-01-29T04:17:59.850Z,-0.30
2019-01-29T04:20:29.706Z,-0.30
2019-01-29T04:23:00.538Z,-0.30
2019-01-29T04:25:30.370Z,-0.30
2019-01-29T04:28:00.198Z,-0.30
2019-01-29T04:30:29.994Z,-0.20
2019-01-29T04:32:59.767Z,-0.30
2019-01-29T04:35:29.618Z,-0.30
2019-01-29T04:37:59.446Z,-0.20
2019-01-29T04:40:29.415Z,-0.20
2019-01-29T04:42:59.213Z,-0.10
2019-01-29T04:45:29.102Z,-0.20
2019-01-29T04:47:58.899Z,-0.20
2019-01-29T04:50:29.903Z,-0.10
2019-01-29T04:52:59.674Z,0.00
2019-01-29T04:55:29.492Z,0.00
2019-01-29T04:57:59.315Z,0.20
2019-01-29T05:00:29.144Z,0.20
2019-01-29T05:02:58.990Z,0.30
2019-01-29T05:05:28.790Z,0.20
2019-01-29T05:07:58.660Z,0.10
2019-01-29T05:10:28.539Z,0.00
2019-01-29T05:12:58.966Z,-0.10
2019-01-29T05:15:28.815Z,-0.20
2019-01-29T05:17:58.629Z,-0.10
2019-01-29T05:20:29.972Z,-0.20
2019-01-29T05:22:59.795Z,-0.10
2019-01-29T05:25:29.818Z,0.00
2019-01-29T05:27:59.718Z,0.10
2019-01-29T05:30:29.590Z,0.10
2019-01-29T05:33:00.736Z,0.00
2019-01-29T05:35:30.644Z,0.00
2019-01-29T05:38:00.518Z,0.00
2019-01-29T05:40:30.308Z,0.00
2019-01-29T05:43:00.212Z,-0.10
2019-01-29T05:45:30.029Z,-0.10
2019-01-29T05:47:59.850Z,0.10
2019-01-29T05:50:29.700Z,-0.10
2019-01-29T05:52:59.528Z,0.00
2019-01-29T05:55:29.380Z,-0.10
2019-01-29T05:57:59.272Z,-0.10
2019-01-29T06:00:30.717Z,-0.10
2019-01-29T06:03:00.569Z,-0.10
2019-01-29T06:05:30.616Z,-0.20
2019-01-29T06:08:01.451Z,-0.20
2019-01-29T06:10:31.408Z,-0.30
2019-01-29T06:13:01.363Z,-0.20
2019-01-29T06:15:31.334Z,-0.20
2019-01-29T06:18:01.163Z,0.00
2019-01-29T06:20:32.037Z,0.00
2019-01-29T06:23:01.877Z,0.10
2019-01-29T06:25:31.727Z,0.10
2019-01-29T06:28:01.544Z,0.10
2019-01-29T06:30:31.397Z,0.00
2019-01-29T06:33:01.291Z,0.20
2019-01-29T06:35:33.037Z,0.20
2019-01-29T06:38:02.985Z,0.20
2019-01-29T06:40:32.949Z,0.30
2019-01-29T06:43:02.820Z,0.20
2019-01-29T06:45:32.688Z,0.30
2019-01-29T06:48:02.564Z,0.20
2019-01-29T06:50:32.779Z,0.10
2019-01-29T06:53:03.059Z,0.00
2019-01-29T06:55:32.938Z,0.00
2019-01-29T06:58:02.779Z,0.00
2019-01-29T07:00:33.698Z,0.00
2019-01-29T07:03:03.675Z,0.20
2019-01-29T07:05:33.580Z,0.10
2019-01-29T07:08:03.384Z,0.00
2019-01-29T07:10:33.260Z,0.10
2019-01-29T07:13:04.766Z,0.20
2019-01-29T07:15:52.767Z,0.40
2019-01-29T07:18:34.307Z,0.50
2019-01-29T07:21:06.598Z,0.70
2019-01-29T07:23:38.467Z,1.00
2019-01-29T07:26:08.308Z,1.70
2019-01-29T07:28:38.216Z,2.00
2019-01-29T07:31:08.188Z,2.90
2019-01-29T07:33:38.081Z,3.90
2019-01-29T07:36:07.948Z,4.10
2019-01-29T07:38:37.831Z,3.80
2019-01-29T07:41:07.747Z,4.10
2019-01-29T07:43:37.616Z,5.00
2019-01-29T07:46:07.493Z,5.80
2019-01-29T07:48:37.335Z,6.30
2019-01-29T07:51:07.223Z,6.70
2019-01-29T07:53:37.092Z,6.80
2019-01-29T07:56:07.213Z,7.00
2019-01-29T07:58:37.431Z,7.20
2019-01-29T08:01:07.539Z,8.10
2019-01-29T08:03:38.332Z,8.30
2019-01-29T08:06:08.758Z,8.70
2019-01-29T08:08:38.997Z,8.80
2019-01-29T08:11:09.067Z,8.00
2019-01-29T08:13:39.257Z,7.00
2019-01-29T08:16:09.495Z,6.00
2019-01-29T08:18:39.443Z,5.20
2019-01-29T08:21:09.386Z,4.80
2019-01-29T08:23:39.507Z,4.50
2019-01-29T08:26:09.762Z,4.40
2019-01-29T08:28:39.846Z,4.20
2019-01-29T08:31:09.964Z,4.00
2019-01-29T08:33:39.883Z,3.80
2019-01-29T08:36:09.972Z,3.90
2019-01-29T08:38:41.177Z,4.00
2019-01-29T08:41:11.294Z,4.40
2019-01-29T08:43:41.476Z,4.80
2019-01-29T08:46:11.631Z,5.70
2019-01-29T08:48:41.718Z,5.90
2019-01-29T08:51:11.729Z,6.00
2019-01-29T08:53:41.871Z,6.50
2019-01-29T08:56:12.114Z,6.70
2019-01-29T08:58:42.007Z,6.00
2019-01-29T09:01:12.140Z,5.30
2019-01-29T09:03:42.162Z,4.90
2019-01-29T09:06:12.240Z,4.60
2019-01-29T09:08:42.216Z,4.60
2019-01-29T09:11:12.367Z,4.50
2019-01-29T09:13:42.500Z,4.50
2019-01-29T09:16:14.213Z,4.90
2019-01-29T09:18:44.681Z,4.70
2019-01-29T09:21:16.434Z,4.70
2019-01-29T09:23:46.365Z,4.30
2019-01-29T09:26:16.226Z,4.50
2019-01-29T09:28:51.535Z,4.60
2019-01-29T09:31:21.535Z,4.70
2019-01-29T09:33:51.447Z,4.90
2019-01-29T09:36:23.528Z,5.30
2019-01-29T09:38:53.442Z,5.80
2019-01-29T09:41:23.470Z,6.10
2019-01-29T09:43:54.119Z,5.80
2019-01-29T09:46:24.120Z,5.40
2019-01-29T09:48:55.470Z,5.80
2019-01-29T09:51:25.559Z,6.80
2019-01-29T09:53:55.520Z,6.70
2019-01-29T09:56:25.720Z,6.10
2019-01-29T09:58:55.839Z,5.30
2019-01-29T10:01:26.159Z,5.10
2019-01-29T10:03:56.159Z,5.00
2019-01-29T10:06:26.159Z,4.90
2019-01-29T10:08:56.120Z,4.90
2019-01-29T10:11:25.990Z,5.10
2019-01-29T10:13:57.519Z,5.20
2019-01-29T10:16:27.737Z,5.10
2019-01-29T10:18:57.679Z,5.10
2019-01-29T10:21:27.639Z,4.80
2019-01-29T10:23:57.759Z,4.50
2019-01-29T10:26:27.759Z,4.50
2019-01-29T10:28:57.961Z,4.30
2019-01-29T10:31:27.945Z,4.20
2019-01-29T10:33:57.867Z,4.20
2019-01-29T10:36:27.986Z,4.10
2019-01-29T10:38:58.060Z,4.30
2019-01-29T10:41:28.085Z,4.30
2019-01-29T10:43:58.105Z,4.10
2019-01-29T10:46:28.300Z,4.00
2019-01-29T10:48:58.262Z,3.90
2019-01-29T10:51:28.225Z,4.00
2019-01-29T10:53:58.263Z,4.00
2019-01-29T10:56:28.262Z,4.20
2019-01-29T10:59:01.105Z,4.20
2019-01-29T11:01:32.591Z,4.20
2019-01-29T11:04:02.822Z,4.40
2019-01-29T11:06:32.884Z,4.50
2019-01-29T11:09:04.230Z,4.70
2019-01-29T11:11:35.010Z,5.10
2019-01-29T11:14:05.434Z,5.00
2019-01-29T11:16:35.670Z,4.90
2019-01-29T11:19:06.383Z,4.70
2019-01-29T11:21:36.602Z,4.60
2019-01-29T11:24:07.110Z,4.50
2019-01-29T11:26:37.176Z,4.40
2019-01-29T11:29:07.270Z,4.30
2019-01-29T11:31:37.236Z,4.30
2019-01-29T11:34:07.256Z,4.10
2019-01-29T11:36:37.386Z,4.00
2019-01-29T11:39:09.417Z,3.80
2019-01-29T11:41:39.598Z,4.00
2019-01-29T11:44:09.670Z,4.00
2019-01-29T11:46:39.771Z,3.90
2019-01-29T11:49:09.703Z,4.00
2019-01-29T11:51:39.754Z,3.90
2019-01-29T11:54:09.674Z,4.00
2019-01-29T11:56:40.274Z,3.90
2019-01-29T11:59:10.194Z,3.70
2019-01-29T12:01:40.074Z,3.70
2019-01-29T12:04:10.024Z,3.60
2019-01-29T12:06:40.534Z,3.60
2019-01-29T12:09:11.039Z,3.60
2019-01-29T12:11:41.244Z,3.60
2019-01-29T12:14:11.474Z,3.50
2019-01-29T12:16:41.516Z,3.60
2019-01-29T12:19:11.480Z,3.50
2019-01-29T12:21:41.434Z,3.40
2019-01-29T12:24:11.515Z,3.50
2019-01-29T12:26:42.463Z,3.50
2019-01-29T12:29:18.162Z,3.50
2019-01-29T12:31:48.859Z,3.50
2019-01-29T12:34:19.384Z,3.40
2019-01-29T12:36:50.274Z,3.50
2019-01-29T12:39:21.076Z,3.50
2019-01-29T12:41:51.394Z,3.50
2019-01-29T12:44:21.394Z,3.50
2019-01-29T12:46:51.394Z,3.60
2019-01-29T12:49:21.395Z,3.60
2019-01-29T12:51:53.003Z,3.70
2019-01-29T12:54:24.876Z,3.70
2019-01-29T12:56:54.794Z,3.60
2019-01-29T12:59:25.435Z,3.70
2019-01-29T13:02:17.026Z,3.70
2019-01-29T13:04:51.754Z,3.60
2019-01-29T13:07:21.755Z,3.60
2019-01-29T13:09:51.835Z,3.60
2019-01-29T13:12:21.795Z,3.50
2019-01-29T13:14:53.084Z,3.50
2019-01-29T13:17:23.154Z,3.60
2019-01-29T13:19:54.794Z,3.60
2019-01-29T13:22:24.755Z,3.60
2019-01-29T13:24:54.703Z,3.60
2019-01-29T13:27:24.914Z,3.70
2019-01-29T13:29:54.891Z,3.80
2019-01-29T13:32:24.775Z,3.90
2019-01-29T13:34:54.804Z,3.80
2019-01-29T13:37:24.725Z,4.00
2019-01-29T13:39:55.092Z,4.10
2019-01-29T13:42:26.393Z,4.20
2019-01-29T13:45:03.016Z,4.10
2019-01-29T13:47:33.008Z,4.00
2019-01-29T13:50:04.285Z,3.80
2019-01-29T13:52:34.565Z,3.70
2019-01-29T13:55:06.754Z,3.50
2019-01-29T13:57:37.004Z,3.40
2019-01-29T14:00:10.005Z,3.40
2019-01-29T14:02:39.925Z,3.40
2019-01-29T14:05:09.885Z,3.40
2019-01-29T14:07:39.845Z,3.30
2019-01-29T14:10:12.724Z,3.40
2019-01-29T14:12:42.717Z,3.30
2019-01-29T14:15:23.048Z,3.30
2019-01-29T14:17:53.309Z,3.20
2019-01-29T14:20:23.404Z,3.10
2019-01-29T14:22:53.365Z,3.20
2019-01-29T14:25:23.484Z,3.20
2019-01-29T14:27:54.993Z,3.10
2019-01-29T14:30:32.825Z,3.10
2019-01-29T14:33:02.926Z,3.10
2019-01-29T14:35:32.964Z,3.10
2019-01-29T14:38:20.713Z,3.00
2019-01-29T14:40:50.765Z,3.00
2019-01-29T14:43:24.845Z,3.00
2019-01-29T14:45:54.844Z,3.00
2019-01-29T14:48:24.699Z,3.10
2019-01-29T14:50:54.688Z,3.00
2019-01-29T14:53:26.230Z,2.90
2019-01-29T14:55:56.136Z,2.90
2019-01-29T14:58:27.758Z,2.90
2019-01-29T15:00:58.068Z,2.90
2019-01-29T15:03:28.165Z,2.90
2019-01-29T15:05:58.154Z,2.90
2019-01-29T15:08:28.069Z,2.90
2019-01-29T15:10:58.026Z,2.90
2019-01-29T15:13:28.444Z,2.90
2019-01-29T15:16:08.572Z,2.90
2019-01-29T15:18:40.084Z,2.90
2019-01-29T15:21:11.653Z,2.90
2019-01-29T15:23:41.845Z,2.80
2019-01-29T15:26:11.754Z,2.80
2019-01-29T15:28:41.873Z,2.70
2019-01-29T15:31:11.653Z,2.80
2019-01-29T15:33:41.569Z,2.70
2019-01-29T15:36:11.764Z,2.80
2019-01-29T15:38:41.604Z,2.80
2019-01-29T15:41:11.475Z,2.70
2019-01-29T15:43:41.405Z,2.80
2019-01-29T15:46:11.544Z,2.80
2019-01-29T15:48:43.288Z,2.80
2019-01-29T15:51:14.208Z,2.80
2019-01-29T15:53:45.272Z,2.80
2019-01-29T15:56:15.493Z,2.80
2019-01-29T15:58:45.609Z,2.80
2019-01-29T16:01:15.740Z,2.80
2019-01-29T16:03:45.605Z,2.90
2019-01-29T16:06:15.396Z,2.90
2019-01-29T16:08:45.250Z,2.80
2019-01-29T16:11:15.604Z,2.80
2019-01-29T16:13:45.450Z,2.70
2019-01-29T16:16:15.404Z,2.70
2019-01-29T16:18:45.397Z,2.80
2019-01-29T16:21:15.406Z,2.80
2019-01-29T16:23:45.584Z,2.80
2019-01-29T16:26:17.108Z,2.80
2019-01-29T16:28:46.973Z,2.80
2019-01-29T16:31:20.283Z,2.80
2019-01-29T16:33:50.269Z,2.70
2019-01-29T16:36:21.021Z,2.70
2019-01-29T16:38:50.957Z,2.70
2019-01-29T16:41:20.877Z,2.70
2019-01-29T16:43:50.799Z,2.70
2019-01-29T16:46:21.044Z,2.70
2019-01-29T16:48:57.605Z,2.70
2019-01-29T16:51:27.604Z,2.70
2019-01-29T16:53:57.458Z,2.80
2019-01-29T16:56:27.348Z,2.80
2019-01-29T16:58:57.713Z,2.70
2019-01-29T17:01:27.885Z,2.70
2019-01-29T17:03:57.804Z,2.60
2019-01-29T17:06:29.133Z,2.70
2019-01-29T17:09:00.997Z,2.60
2019-01-29T17:11:32.611Z,2.60
2019-01-29T17:14:02.585Z,2.60
2019-01-29T17:16:32.485Z,2.50
2019-01-29T17:19:12.924Z,2.50
2019-01-29T17:21:43.116Z,2.50
2019-01-29T17:24:12.961Z,2.50
2019-01-29T17:26:42.925Z,2.50
2019-01-29T17:29:12.885Z,2.40
2019-01-29T17:31:42.766Z,2.40
2019-01-29T17:34:13.346Z,2.40
2019-01-29T17:36:45.029Z,2.40
2019-01-29T17:39:16.109Z,2.50
2019-01-29T17:41:46.190Z,2.40
2019-01-29T17:44:16.108Z,2.50
2019-01-29T17:46:46.037Z,2.50
2019-01-29T17:49:15.896Z,2.50
2019-01-29T17:51:45.944Z,2.30
2019-01-29T17:54:29.849Z,2.20
2019-01-29T17:57:02.133Z,2.20
2019-01-29T17:59:34.053Z,2.20
2019-01-29T18:02:08.067Z,2.10
2019-01-29T18:04:43.522Z,2.10
2019-01-29T18:07:13.465Z,2.00
2019-01-29T18:09:43.553Z,1.80
2019-01-29T18:12:14.277Z,1.70
2019-01-29T18:14:45.930Z,1.70
2019-01-29T18:17:17.196Z,1.60
2019-01-29T18:19:47.818Z,1.60
2019-01-29T18:22:17.778Z,1.50
2019-01-29T18:24:48.777Z,1.50
2019-01-29T18:27:19.364Z,1.60
2019-01-29T18:29:49.490Z,1.50
2019-01-29T18:32:19.415Z,1.60
2019-01-29T18:34:49.370Z,1.50
2019-01-29T18:37:19.225Z,1.60
2019-01-29T18:39:49.164Z,1.60
2019-01-29T18:42:19.321Z,1.50
2019-01-29T18:44:49.581Z,1.40
2019-01-29T18:47:19.905Z,1.50
2019-01-29T18:49:50.181Z,1.50
2019-01-29T18:52:20.154Z,1.50
2019-01-29T18:54:50.577Z,1.50
2019-01-29T18:57:21.591Z,1.60
2019-01-29T18:59:51.578Z,1.60
2019-01-29T19:02:21.621Z,1.70
2019-01-29T19:04:51.702Z,1.70
2019-01-29T19:07:21.562Z,1.60
2019-01-29T19:09:51.726Z,1.50
2019-01-29T19:12:22.358Z,1.50
2019-01-29T19:14:52.665Z,1.50
2019-01-29T19:17:24.227Z,1.60
2019-01-29T19:19:54.286Z,1.60
2019-01-29T19:22:24.626Z,1.70
2019-01-29T19:24:54.590Z,1.60
2019-01-29T19:27:24.418Z,1.50
2019-01-29T19:29:54.265Z,1.40
2019-01-29T19:32:24.197Z,1.40
2019-01-29T19:34:54.745Z,1.40
2019-01-29T19:37:25.385Z,1.40
2019-01-29T19:39:57.069Z,1.40
2019-01-29T19:42:27.876Z,1.40
2019-01-29T19:44:58.379Z,1.40
2019-01-29T19:47:29.870Z,1.50
2019-01-29T19:50:00.294Z,1.50
2019-01-29T19:52:31.158Z,1.50
2019-01-29T19:55:02.291Z,1.40
2019-01-29T19:57:32.461Z,1.40
2019-01-29T20:00:02.510Z,1.40
2019-01-29T20:02:33.958Z,1.40
2019-01-29T20:05:08.534Z,1.40
2019-01-29T20:07:40.303Z,1.30
2019-01-29T20:10:14.798Z,1.40
2019-01-29T20:13:02.490Z,1.40
2019-01-29T20:15:33.379Z,1.40
2019-01-29T20:18:05.682Z,1.40
2019-01-29T20:20:38.814Z,1.40
2019-01-29T20:23:11.161Z,1.30
2019-01-29T20:25:41.754Z,1.60
2019-01-29T20:28:19.202Z,1.50
2019-01-29T20:30:51.857Z,1.50
2019-01-29T20:33:26.666Z,1.50
2019-01-29T20:35:57.202Z,1.60
2019-01-29T20:38:34.914Z,1.40
2019-01-29T20:41:00.582Z,1.40
2019-01-29T20:43:33.942Z,1.40
2019-01-29T20:46:05.272Z,1.30
2019-01-29T20:48:38.037Z,1.30
2019-01-29T20:51:09.966Z,1.30
2019-01-29T20:53:39.915Z,1.30
2019-01-29T20:56:12.935Z,1.30
2019-01-29T20:58:52.319Z,1.30
2019-01-29T21:01:16.363Z,1.30
2019-01-29T21:03:46.946Z,1.20
2019-01-29T21:06:19.325Z,1.20
2019-01-29T21:08:51.070Z,1.30
2019-01-29T21:11:22.022Z,1.40
2019-01-29T21:13:52.118Z,1.30
2019-01-29T21:16:24.183Z,1.30
2019-01-29T21:18:56.003Z,1.30
2019-01-29T21:21:26.629Z,1.30
2019-01-29T21:23:57.330Z,1.30
2019-01-29T21:26:27.530Z,1.30
2019-01-29T21:29:03.138Z,1.30
2019-01-29T21:31:28.992Z,1.20
2019-01-29T21:33:59.521Z,1.20
2019-01-29T21:36:30.462Z,1.30
2019-01-29T21:39:01.504Z,1.30
2019-01-29T21:41:33.022Z,1.30
2019-01-29T21:44:04.042Z,1.20
2019-01-29T21:46:46.027Z,1.10
2019-01-29T21:49:21.461Z,1.40
2019-01-29T21:52:16.833Z,1.40
2019-01-29T21:55:17.354Z,1.40
2019-01-29T21:57:49.985Z,1.40
2019-01-29T22:00:23.356Z,1.30
2019-01-29T22:02:55.443Z,1.30
2019-01-29T22:05:27.008Z,1.30
2019-01-29T22:07:59.186Z,1.30
2019-01-29T22:10:29.576Z,1.40
2019-01-29T22:13:05.358Z,1.30
2019-01-29T22:15:37.515Z,1.30
2019-01-29T22:18:10.152Z,1.30
2019-01-29T22:20:42.550Z,1.20
2019-01-29T22:23:14.194Z,1.20
2019-01-29T22:25:46.294Z,1.30
2019-01-29T22:28:16.832Z,1.20
2019-01-29T22:30:46.779Z,1.20
2019-01-29T22:33:17.067Z,1.20
2019-01-29T22:35:49.649Z,1.20
2019-01-29T22:38:22.094Z,1.30
2019-01-29T22:40:52.088Z,1.20
2019-01-29T22:43:22.784Z,1.20
2019-01-29T22:45:53.514Z,1.20
2019-01-29T22:48:23.856Z,1.20
2019-01-29T22:50:53.953Z,1.20
2019-01-29T22:53:25.830Z,1.30
2019-01-29T22:55:55.751Z,1.30
2019-01-29T22:58:27.317Z,1.30
2019-01-29T23:01:00.783Z,1.40
2019-01-29T23:03:37.801Z,1.30
2019-01-29T23:06:27.014Z,1.20
2019-01-29T23:08:57.071Z,1.20
2019-01-29T23:11:27.112Z,1.20
2019-01-29T23:13:57.182Z,1.30
2019-01-29T23:16:27.332Z,1.30
2019-01-29T23:18:58.852Z,1.30
2019-01-29T23:21:30.478Z,1.30
2019-01-29T23:24:01.456Z,1.30
2019-01-29T23:26:31.560Z,1.30
2019-01-29T23:29:02.237Z,1.40
2019-01-29T23:31:33.223Z,1.30
2019-01-29T23:34:03.655Z,1.30
2019-01-29T23:36:33.483Z,1.30
2019-01-29T23:39:04.748Z,1.30
2019-01-29T23:41:37.070Z,1.30
2019-01-29T23:44:08.776Z,1.30
2019-01-29T23:46:39.927Z,1.40
2019-01-29T23:49:10.448Z,1.40
2019-01-29T23:51:40.991Z,1.30
2019-01-29T23:54:11.371Z,1.30
2019-01-29T23:56:44.307Z,1.30
2019-01-29T23:59:15.442Z,1.30
